Time;durP1;ratioP1;P1;durP2;ratioP2;P2;SDS_P1;SDS_P2;PMS_P1;PMS_P2;Temp;Humidity;BMP_temperature;BMP_pressure;BME280_temperature;BME280_humidity;BME280_pressure;Samples;Min_cycle;Max_cycle;Signal;HPM_P1;HPM_P2
2023/09/30 02:43:27;;;;;;;;;;;;;;;17.40;71.63;100719.13;1087250;54;2160;-82
2023/09/30 02:57:55;;;;;;;;;;;;;;;17.20;72.43;100735.72;1087284;54;1998;-82
2023/09/30 02:59:04;;;;;;;;;;;;;;;17.20;72.33;100734.91;1088666;47;893;-84
2023/09/30 03:00:23;;;;;;;;;;;;;;;17.21;72.49;100736.59;1088644;54;909;-81
2023/09/30 04:32:09;;;;;;;;;;;;;;;16.73;73.59;100758.00;1086773;54;2118;-84
2023/09/30 04:33:17;;;;;;;;;;;;;;;16.66;73.94;100760.56;1088286;47;1356;-82
2023/09/30 04:34:24;;;;;;;;;;;;;;;16.60;74.39;100769.31;1088163;47;865;-82
2023/09/30 04:35:26;;;;;;;;;;;;;;;16.65;73.75;100773.19;1088152;47;923;-83
2023/09/30 04:36:30;;;;;;;;;;;;;;;16.59;74.01;100775.72;1088302;47;828;-82
2023/09/30 04:37:34;;;;;;;;;;;;;;;16.49;74.18;100775.88;1088434;47;943;-82
2023/09/30 07:46:30;;;;;;;;;;;;;;;17.43;71.48;100924.19;1088436;54;915;-81
2023/09/30 07:47:33;;;;;;;;;;;;;;;17.31;71.13;100921.81;1088106;54;1341;-82
2023/09/30 07:48:39;;;;;;;;;;;;;;;17.28;71.55;100922.19;1088219;54;1488;-81
2023/09/30 07:49:40;;;;;;;;;;;;;;;17.19;71.47;100923.19;1087930;46;1019;-83
2023/09/30 07:50:47;;;;;;;;;;;;;;;17.22;71.74;100919.31;1087799;47;1934;-81
2023/09/30 07:51:59;;;;;;;;;;;;;;;17.21;71.59;100923.00;1088070;54;1086;-81
2023/09/30 07:53:02;;;;;;;;;;;;;;;17.34;71.51;100919.81;1088035;46;1303;-81
2023/09/30 07:54:03;;;;;;;;;;;;;;;17.41;71.11;100920.81;1088254;47;1237;-82
2023/09/30 07:55:08;;;;;;;;;;;;;;;17.40;70.88;100919.13;1088360;54;1149;-84
2023/09/30 07:56:10;;;;;;;;;;;;;;;17.42;70.74;100923.38;1088031;47;1066;-83
2023/09/30 07:57:13;;;;;;;;;;;;;;;17.45;70.68;100927.59;1087893;54;917;-80
2023/09/30 07:58:17;;;;;;;;;;;;;;;17.55;70.73;100912.03;1087411;54;983;-81
2023/09/30 07:59:20;;;;;;;;;;;;;;;17.62;70.25;100907.66;1087155;54;1074;-80
2023/09/30 08:00:21;;;;;;;;;;;;;;;17.74;69.93;100899.19;1087199;54;1577;-80
2023/09/30 08:01:28;;;;;;;;;;;;;;;17.60;70.05;100895.31;1086543;47;1047;-78
2023/09/30 08:02:33;;;;;;;;;;;;;;;17.69;70.05;100899.69;1085947;54;1380;-81
2023/09/30 08:03:36;;;;;;;;;;;;;;;17.79;69.28;100888.69;1086348;54;1567;-81
2023/09/30 08:04:37;;;;;;;;;;;;;;;17.82;69.12;100887.50;1086122;54;1179;-79
2023/09/30 08:05:42;;;;;;;;;;;;;;;17.95;68.96;100889.69;1086694;54;1184;-80
2023/09/30 08:06:49;;;;;;;;;;;;;;;18.01;69.13;100889.84;1087302;47;1050;-80
2023/09/30 08:08:02;;;;;;;;;;;;;;;18.04;68.88;100883.28;1087882;54;1310;-80
2023/09/30 08:09:14;;;;;;;;;;;;;;;18.14;68.14;100894.72;1087964;54;1181;-78
2023/09/30 08:10:17;;;;;;;;;;;;;;;18.26;67.76;100891.63;1088169;54;1058;-80
2023/09/30 08:11:18;;;;;;;;;;;;;;;18.36;67.55;100887.72;1088100;47;1852;-80
2023/09/30 08:12:30;;;;;;;;;;;;;;;18.42;66.55;100891.56;1087879;47;1318;-81
2023/09/30 08:13:32;;;;;;;;;;;;;;;18.36;66.53;100889.56;1087472;54;1124;-81
2023/09/30 08:14:35;;;;;;;;;;;;;;;18.54;66.69;100884.75;1087100;54;1132;-81
2023/09/30 08:15:36;;;;;;;;;;;;;;;18.76;66.32;100890.38;1086892;47;1127;-80
2023/09/30 08:16:42;;;;;;;;;;;;;;;18.91;65.97;100889.59;1087288;54;1078;-81
2023/09/30 08:17:53;;;;;;;;;;;;;;;19.05;65.24;100902.44;1087865;47;948;-82
2023/09/30 08:29:26;;;;;;;;;;;;;;;19.62;62.85;100884.84;1088270;47;944;-81
2023/09/30 08:30:28;;;;;;;;;;;;;;;19.66;62.37;100879.88;1087607;54;1399;-80
2023/09/30 08:31:33;;;;;;;;;;;;;;;19.54;62.39;100884.91;1088224;47;1839;-80
2023/09/30 08:32:45;;;;;;;;;;;;;;;19.63;62.40;100874.84;1088007;47;1592;-80
2023/09/30 08:33:47;;;;;;;;;;;;;;;19.59;62.23;100873.53;1087968;54;1058;-82
2023/09/30 08:34:51;;;;;;;;;;;;;;;19.47;61.77;100878.56;1088205;47;1016;-81
2023/09/30 08:36:06;;;;;;;;;;;;;;;19.40;62.29;100880.31;1087761;47;1008;-82
2023/09/30 08:37:14;;;;;;;;;;;;;;;19.24;61.82;100884.81;1088041;47;1011;-84
2023/09/30 08:38:16;;;;;;;;;;;;;;;19.30;62.12;100889.53;1088186;54;1454;-82
2023/09/30 08:39:44;;;;;;;;;;;;;;;19.09;62.06;100890.19;1088733;46;1081;-82
2023/09/30 08:40:55;;;;;;;;;;;;;;;18.99;62.95;100897.72;1087889;47;1085;-82
2023/09/30 08:42:09;;;;;;;;;;;;;;;19.12;62.71;100897.13;1088101;54;1140;-82
2023/09/30 08:43:12;;;;;;;;;;;;;;;19.21;62.16;100898.75;1088001;47;1347;-83
2023/09/30 08:44:20;;;;;;;;;;;;;;;19.33;62.40;100893.75;1088032;54;1151;-83
2023/09/30 08:47:06;;;;;;;;;;;;;;;19.45;61.83;100895.00;1086439;47;1134;-82
2023/09/30 08:48:22;;;;;;;;;;;;;;;19.70;61.62;100893.91;1086968;47;1207;-80
2023/09/30 08:51:17;;;;;;;;;;;;;;;19.88;60.69;100890.91;1087409;47;1858;-79
2023/09/30 08:52:18;;;;;;;;;;;;;;;19.95;60.45;100898.13;1085325;54;1389;-81
2023/09/30 08:53:27;;;;;;;;;;;;;;;19.99;60.56;100889.59;1085158;54;1077;-82
2023/09/30 08:54:28;;;;;;;;;;;;;;;19.98;60.19;100888.75;1087136;54;1052;-81
2023/09/30 08:55:32;;;;;;;;;;;;;;;20.00;59.89;100884.00;1086340;47;1453;-79
2023/09/30 08:56:33;;;;;;;;;;;;;;;20.02;60.06;100884.66;1085153;54;993;-80
2023/09/30 08:57:37;;;;;;;;;;;;;;;20.08;59.98;100881.19;1085003;54;1187;-80
2023/09/30 08:58:41;;;;;;;;;;;;;;;20.27;59.47;100882.47;1084781;54;1091;-80
2023/09/30 08:59:43;;;;;;;;;;;;;;;20.47;59.01;100886.50;1084940;54;1066;-81
2023/09/30 09:00:47;;;;;;;;;;;;;;;20.58;58.40;100886.00;1084651;54;1053;-80
2023/09/30 09:01:47;;;;;;;;;;;;;;;20.71;58.38;100883.44;1085168;47;1592;-80
2023/09/30 09:02:52;;;;;;;;;;;;;;;20.87;58.38;100889.72;1085176;54;1447;-79
2023/09/30 09:03:54;;;;;;;;;;;;;;;21.05;57.79;100891.97;1085468;54;1032;-83
